sensor_id;sensor_type;location;lat;lon;timestamp;temperature;humidity
80540;DHT22;69869;48.036;15.780;2024-02-21T00:02:05;14.00;79.10
80540;DHT22;69869;48.036;15.780;2024-02-21T00:04:31;14.00;79.20
80540;DHT22;69869;48.036;15.780;2024-02-21T00:06:57;14.00;79.10
80540;DHT22;69869;48.036;15.780;2024-02-21T00:09:22;14.00;79.10
80540;DHT22;69869;48.036;15.780;2024-02-21T00:11:48;14.00;79.10
80540;DHT22;69869;48.036;15.780;2024-02-21T00:14:13;14.00;79.10
80540;DHT22;69869;48.036;15.780;2024-02-21T00:16:39;14.00;79.10
80540;DHT22;69869;48.036;15.780;2024-02-21T00:19:05;14.00;79.10
80540;DHT22;69869;48.036;15.780;2024-02-21T00:21:30;14.00;79.00
80540;DHT22;69869;48.036;15.780;2024-02-21T00:23:56;14.00;79.10
80540;DHT22;69869;48.036;15.780;2024-02-21T00:26:22;14.00;79.00
80540;DHT22;69869;48.036;15.780;2024-02-21T00:28:47;14.00;79.10
80540;DHT22;69869;48.036;15.780;2024-02-21T00:31:13;14.00;79.10
80540;DHT22;69869;48.036;15.780;2024-02-21T00:33:39;14.00;79.10
80540;DHT22;69869;48.036;15.780;2024-02-21T00:36:05;14.00;79.10
80540;DHT22;69869;48.036;15.780;2024-02-21T00:38:30;14.00;79.80
80540;DHT22;69869;48.036;15.780;2024-02-21T00:40:56;14.00;79.20
80540;DHT22;69869;48.036;15.780;2024-02-21T00:43:22;14.00;79.10
80540;DHT22;69869;48.036;15.780;2024-02-21T00:45:49;14.00;79.10
80540;DHT22;69869;48.036;15.780;2024-02-21T00:48:15;14.00;79.00
80540;DHT22;69869;48.036;15.780;2024-02-21T00:50:41;14.00;79.10
80540;DHT22;69869;48.036;15.780;2024-02-21T00:53:06;14.00;79.10
80540;DHT22;69869;48.036;15.780;2024-02-21T00:55:32;14.00;79.10
80540;DHT22;69869;48.036;15.780;2024-02-21T00:57:58;14.00;79.00
80540;DHT22;69869;48.036;15.780;2024-02-21T01:00:23;14.00;79.00
80540;DHT22;69869;48.036;15.780;2024-02-21T01:02:49;14.00;78.90
80540;DHT22;69869;48.036;15.780;2024-02-21T01:05:14;14.00;79.00
80540;DHT22;69869;48.036;15.780;2024-02-21T01:07:40;14.00;79.10
80540;DHT22;69869;48.036;15.780;2024-02-21T01:10:06;14.00;79.10
80540;DHT22;69869;48.036;15.780;2024-02-21T01:12:32;14.00;79.70
80540;DHT22;69869;48.036;15.780;2024-02-21T01:14:58;14.00;79.10
80540;DHT22;69869;48.036;15.780;2024-02-21T01:17:23;14.00;79.10
80540;DHT22;69869;48.036;15.780;2024-02-21T01:19:49;14.00;79.10
80540;DHT22;69869;48.036;15.780;2024-02-21T01:22:15;14.00;79.10
80540;DHT22;69869;48.036;15.780;2024-02-21T01:24:41;14.00;79.10
80540;DHT22;69869;48.036;15.780;2024-02-21T01:27:07;14.00;79.00
80540;DHT22;69869;48.036;15.780;2024-02-21T01:29:33;14.00;79.10
80540;DHT22;69869;48.036;15.780;2024-02-21T01:31:58;14.00;79.20
80540;DHT22;69869;48.036;15.780;2024-02-21T01:34:24;14.00;79.10
80540;DHT22;69869;48.036;15.780;2024-02-21T01:36:50;14.00;79.20
80540;DHT22;69869;48.036;15.780;2024-02-21T01:39:16;14.00;79.20
80540;DHT22;69869;48.036;15.780;2024-02-21T01:41:41;14.00;79.00
80540;DHT22;69869;48.036;15.780;2024-02-21T01:44:07;14.00;79.10
80540;DHT22;69869;48.036;15.780;2024-02-21T01:46:34;14.00;79.10
80540;DHT22;69869;48.036;15.780;2024-02-21T01:49:00;14.00;79.10
80540;DHT22;69869;48.036;15.780;2024-02-21T01:51:26;14.00;79.00
80540;DHT22;69869;48.036;15.780;2024-02-21T01:53:53;14.00;79.00
80540;DHT22;69869;48.036;15.780;2024-02-21T01:56:21;14.00;79.10
80540;DHT22;69869;48.036;15.780;2024-02-21T01:58:48;14.00;79.10
80540;DHT22;69869;48.036;15.780;2024-02-21T02:01:13;14.00;79.00
80540;DHT22;69869;48.036;15.780;2024-02-21T02:03:39;14.00;79.10
80540;DHT22;69869;48.036;15.780;2024-02-21T02:06:06;14.00;78.90
80540;DHT22;69869;48.036;15.780;2024-02-21T02:08:35;14.00;79.00
80540;DHT22;69869;48.036;15.780;2024-02-21T02:11:01;14.00;79.00
80540;DHT22;69869;48.036;15.780;2024-02-21T02:13:27;14.00;79.00
80540;DHT22;69869;48.036;15.780;2024-02-21T02:15:53;14.00;79.10
80540;DHT22;69869;48.036;15.780;2024-02-21T02:18:19;14.00;79.00
80540;DHT22;69869;48.036;15.780;2024-02-21T02:20:45;14.00;79.00
80540;DHT22;69869;48.036;15.780;2024-02-21T02:23:30;14.00;79.00
80540;DHT22;69869;48.036;15.780;2024-02-21T02:25:59;14.00;79.00
80540;DHT22;69869;48.036;15.780;2024-02-21T02:28:26;14.00;78.90
80540;DHT22;69869;48.036;15.780;2024-02-21T02:30:52;14.00;79.00
80540;DHT22;69869;48.036;15.780;2024-02-21T02:33:18;14.00;78.90
80540;DHT22;69869;48.036;15.780;2024-02-21T02:35:44;14.00;78.90
80540;DHT22;69869;48.036;15.780;2024-02-21T02:38:10;14.00;78.90
80540;DHT22;69869;48.036;15.780;2024-02-21T02:40:38;14.00;78.90
80540;DHT22;69869;48.036;15.780;2024-02-21T02:43:04;14.00;78.90
80540;DHT22;69869;48.036;15.780;2024-02-21T02:45:30;14.00;78.90
80540;DHT22;69869;48.036;15.780;2024-02-21T02:47:57;14.00;78.90
80540;DHT22;69869;48.036;15.780;2024-02-21T02:50:27;14.00;78.80
80540;DHT22;69869;48.036;15.780;2024-02-21T02:52:53;14.00;78.90
80540;DHT22;69869;48.036;15.780;2024-02-21T02:55:19;14.00;78.90
80540;DHT22;69869;48.036;15.780;2024-02-21T02:57:45;14.00;78.90
80540;DHT22;69869;48.036;15.780;2024-02-21T03:00:12;14.00;78.90
80540;DHT22;69869;48.036;15.780;2024-02-21T03:02:43;14.00;78.90
80540;DHT22;69869;48.036;15.780;2024-02-21T03:05:34;14.00;78.90
80540;DHT22;69869;48.036;15.780;2024-02-21T03:08:00;14.00;78.90
80540;DHT22;69869;48.036;15.780;2024-02-21T03:10:26;14.00;79.00
80540;DHT22;69869;48.036;15.780;2024-02-21T03:12:51;14.00;78.90
80540;DHT22;69869;48.036;15.780;2024-02-21T03:15:18;14.00;79.00
80540;DHT22;69869;48.036;15.780;2024-02-21T03:17:44;14.00;78.90
80540;DHT22;69869;48.036;15.780;2024-02-21T03:20:10;14.00;78.90
80540;DHT22;69869;48.036;15.780;2024-02-21T03:22:36;14.00;78.90
80540;DHT22;69869;48.036;15.780;2024-02-21T03:25:03;14.00;78.90
80540;DHT22;69869;48.036;15.780;2024-02-21T03:27:28;14.00;78.90
80540;DHT22;69869;48.036;15.780;2024-02-21T03:29:54;14.00;79.00
80540;DHT22;69869;48.036;15.780;2024-02-21T03:32:20;14.00;78.90
80540;DHT22;69869;48.036;15.780;2024-02-21T03:34:45;14.00;78.90
80540;DHT22;69869;48.036;15.780;2024-02-21T03:37:11;14.00;78.90
80540;DHT22;69869;48.036;15.780;2024-02-21T03:39:39;14.00;79.00
80540;DHT22;69869;48.036;15.780;2024-02-21T03:42:05;14.00;79.00
80540;DHT22;69869;48.036;15.780;2024-02-21T03:44:31;13.90;78.90
80540;DHT22;69869;48.036;15.780;2024-02-21T03:46:58;14.00;79.00
80540;DHT22;69869;48.036;15.780;2024-02-21T03:49:24;14.00;78.90
80540;DHT22;69869;48.036;15.780;2024-02-21T03:51:49;14.00;78.90
80540;DHT22;69869;48.036;15.780;2024-02-21T03:54:15;14.00;79.00
80540;DHT22;69869;48.036;15.780;2024-02-21T03:56:40;14.00;79.00
80540;DHT22;69869;48.036;15.780;2024-02-21T03:59:07;14.00;78.90
80540;DHT22;69869;48.036;15.780;2024-02-21T04:01:34;14.00;78.90
80540;DHT22;69869;48.036;15.780;2024-02-21T04:04:00;14.00;78.90
80540;DHT22;69869;48.036;15.780;2024-02-21T04:06:25;14.00;78.90
80540;DHT22;69869;48.036;15.780;2024-02-21T04:08:51;14.00;78.80
80540;DHT22;69869;48.036;15.780;2024-02-21T04:11:16;14.00;78.80
80540;DHT22;69869;48.036;15.780;2024-02-21T04:13:44;13.90;78.70
80540;DHT22;69869;48.036;15.780;2024-02-21T04:16:10;14.00;78.80
80540;DHT22;69869;48.036;15.780;2024-02-21T04:18:35;14.00;78.90
80540;DHT22;69869;48.036;15.780;2024-02-21T04:21:01;13.90;78.60
80540;DHT22;69869;48.036;15.780;2024-02-21T04:23:27;14.00;78.90
80540;DHT22;69869;48.036;15.780;2024-02-21T04:25:52;14.00;78.90
80540;DHT22;69869;48.036;15.780;2024-02-21T04:28:18;13.90;78.70
80540;DHT22;69869;48.036;15.780;2024-02-21T04:30:44;14.00;78.90
80540;DHT22;69869;48.036;15.780;2024-02-21T04:33:09;13.90;78.70
80540;DHT22;69869;48.036;15.780;2024-02-21T04:35:38;14.00;78.90
80540;DHT22;69869;48.036;15.780;2024-02-21T04:38:05;14.00;78.90
80540;DHT22;69869;48.036;15.780;2024-02-21T04:40:30;13.90;78.80
80540;DHT22;69869;48.036;15.780;2024-02-21T04:42:57;13.90;78.70
80540;DHT22;69869;48.036;15.780;2024-02-21T04:45:22;13.90;78.80
80540;DHT22;69869;48.036;15.780;2024-02-21T04:47:48;14.00;78.90
80540;DHT22;69869;48.036;15.780;2024-02-21T04:50:14;14.00;78.80
80540;DHT22;69869;48.036;15.780;2024-02-21T04:52:40;14.00;78.80
80540;DHT22;69869;48.036;15.780;2024-02-21T04:55:05;14.00;78.80
80540;DHT22;69869;48.036;15.780;2024-02-21T04:57:31;14.00;78.70
80540;DHT22;69869;48.036;15.780;2024-02-21T04:59:57;14.00;78.70
80540;DHT22;69869;48.036;15.780;2024-02-21T05:02:22;14.00;78.70
80540;DHT22;69869;48.036;15.780;2024-02-21T05:04:50;14.00;78.70
80540;DHT22;69869;48.036;15.780;2024-02-21T05:07:15;13.90;78.50
80540;DHT22;69869;48.036;15.780;2024-02-21T05:09:42;14.00;78.50
80540;DHT22;69869;48.036;15.780;2024-02-21T05:12:08;14.00;78.70
80540;DHT22;69869;48.036;15.780;2024-02-21T05:14:34;13.90;78.50
80540;DHT22;69869;48.036;15.780;2024-02-21T05:16:59;14.00;78.70
80540;DHT22;69869;48.036;15.780;2024-02-21T05:19:25;13.90;78.50
80540;DHT22;69869;48.036;15.780;2024-02-21T05:21:51;14.00;78.70
80540;DHT22;69869;48.036;15.780;2024-02-21T05:24:16;14.00;78.70
80540;DHT22;69869;48.036;15.780;2024-02-21T05:26:42;14.00;78.70
80540;DHT22;69869;48.036;15.780;2024-02-21T05:29:08;14.00;79.30
80540;DHT22;69869;48.036;15.780;2024-02-21T05:34:18;14.00;78.70
80540;DHT22;69869;48.036;15.780;2024-02-21T05:36:44;14.00;78.80
80540;DHT22;69869;48.036;15.780;2024-02-21T05:39:10;13.90;78.50
80540;DHT22;69869;48.036;15.780;2024-02-21T05:41:35;14.00;78.70
80540;DHT22;69869;48.036;15.780;2024-02-21T05:44:01;13.90;78.50
80540;DHT22;69869;48.036;15.780;2024-02-21T05:46:27;14.00;78.70
80540;DHT22;69869;48.036;15.780;2024-02-21T05:48:53;14.00;78.60
80540;DHT22;69869;48.036;15.780;2024-02-21T05:51:19;14.00;78.70
80540;DHT22;69869;48.036;15.780;2024-02-21T05:53:44;14.00;78.80
80540;DHT22;69869;48.036;15.780;2024-02-21T06:01:25;14.00;78.70
80540;DHT22;69869;48.036;15.780;2024-02-21T06:03:51;14.00;78.80
80540;DHT22;69869;48.036;15.780;2024-02-21T06:06:17;14.00;78.70
80540;DHT22;69869;48.036;15.780;2024-02-21T06:08:42;14.00;78.70
80540;DHT22;69869;48.036;15.780;2024-02-21T06:11:08;14.00;79.30
80540;DHT22;69869;48.036;15.780;2024-02-21T06:13:38;14.00;78.70
80540;DHT22;69869;48.036;15.780;2024-02-21T06:16:05;13.90;78.60
80540;DHT22;69869;48.036;15.780;2024-02-21T06:18:31;14.00;78.70
80540;DHT22;69869;48.036;15.780;2024-02-21T06:20:57;13.90;78.60
80540;DHT22;69869;48.036;15.780;2024-02-21T06:23:22;14.00;78.80
80540;DHT22;69869;48.036;15.780;2024-02-21T06:25:48;14.00;78.80
80540;DHT22;69869;48.036;15.780;2024-02-21T06:28:14;14.00;78.60
80540;DHT22;69869;48.036;15.780;2024-02-21T06:30:40;13.90;78.50
80540;DHT22;69869;48.036;15.780;2024-02-21T06:33:06;14.00;79.20
80540;DHT22;69869;48.036;15.780;2024-02-21T06:35:33;14.00;78.60
80540;DHT22;69869;48.036;15.780;2024-02-21T06:37:59;14.00;78.70
80540;DHT22;69869;48.036;15.780;2024-02-21T06:40:25;14.00;78.70
80540;DHT22;69869;48.036;15.780;2024-02-21T06:42:50;14.00;78.70
80540;DHT22;69869;48.036;15.780;2024-02-21T06:45:17;13.90;78.40
80540;DHT22;69869;48.036;15.780;2024-02-21T06:47:42;14.00;78.80
80540;DHT22;69869;48.036;15.780;2024-02-21T06:50:09;14.00;78.70
80540;DHT22;69869;48.036;15.780;2024-02-21T06:52:35;14.00;78.80
80540;DHT22;69869;48.036;15.780;2024-02-21T06:55:01;14.00;78.70
80540;DHT22;69869;48.036;15.780;2024-02-21T06:57:28;14.00;78.70
80540;DHT22;69869;48.036;15.780;2024-02-21T06:59:54;14.00;78.70
80540;DHT22;69869;48.036;15.780;2024-02-21T07:02:20;14.00;78.70
80540;DHT22;69869;48.036;15.780;2024-02-21T07:04:45;14.00;78.70
80540;DHT22;69869;48.036;15.780;2024-02-21T07:07:11;14.00;78.70
80540;DHT22;69869;48.036;15.780;2024-02-21T07:09:38;13.90;78.60
80540;DHT22;69869;48.036;15.780;2024-02-21T07:12:04;14.00;78.70
80540;DHT22;69869;48.036;15.780;2024-02-21T07:14:31;14.00;78.70
80540;DHT22;69869;48.036;15.780;2024-02-21T07:16:57;14.00;78.70
80540;DHT22;69869;48.036;15.780;2024-02-21T07:19:23;13.90;78.60
80540;DHT22;69869;48.036;15.780;2024-02-21T07:21:48;14.00;78.70
80540;DHT22;69869;48.036;15.780;2024-02-21T07:24:14;14.00;78.70
80540;DHT22;69869;48.036;15.780;2024-02-21T07:26:44;14.00;78.80
80540;DHT22;69869;48.036;15.780;2024-02-21T07:29:09;14.00;78.70
80540;DHT22;69869;48.036;15.780;2024-02-21T07:31:42;13.90;78.60
80540;DHT22;69869;48.036;15.780;2024-02-21T07:34:08;14.00;78.80
80540;DHT22;69869;48.036;15.780;2024-02-21T07:36:33;13.90;78.60
80540;DHT22;69869;48.036;15.780;2024-02-21T07:38:59;14.00;78.70
80540;DHT22;69869;48.036;15.780;2024-02-21T07:41:25;14.00;78.70
80540;DHT22;69869;48.036;15.780;2024-02-21T07:43:51;14.00;78.80
80540;DHT22;69869;48.036;15.780;2024-02-21T07:46:18;14.00;78.80
80540;DHT22;69869;48.036;15.780;2024-02-21T07:48:45;14.00;78.80
80540;DHT22;69869;48.036;15.780;2024-02-21T07:51:12;14.00;78.70
80540;DHT22;69869;48.036;15.780;2024-02-21T07:53:39;14.00;78.80
80540;DHT22;69869;48.036;15.780;2024-02-21T07:56:12;14.00;79.40
80540;DHT22;69869;48.036;15.780;2024-02-21T07:58:42;14.00;78.70
80540;DHT22;69869;48.036;15.780;2024-02-21T08:01:08;14.00;78.70
80540;DHT22;69869;48.036;15.780;2024-02-21T08:03:34;13.90;78.60
80540;DHT22;69869;48.036;15.780;2024-02-21T08:05:59;14.00;78.80
80540;DHT22;69869;48.036;15.780;2024-02-21T08:08:25;14.00;78.70
80540;DHT22;69869;48.036;15.780;2024-02-21T08:10:51;14.00;78.70
80540;DHT22;69869;48.036;15.780;2024-02-21T08:13:17;14.00;78.70
80540;DHT22;69869;48.036;15.780;2024-02-21T08:15:43;14.00;78.60
80540;DHT22;69869;48.036;15.780;2024-02-21T08:18:09;14.00;78.60
80540;DHT22;69869;48.036;15.780;2024-02-21T08:20:34;14.00;78.70
80540;DHT22;69869;48.036;15.780;2024-02-21T08:23:01;13.90;78.50
80540;DHT22;69869;48.036;15.780;2024-02-21T08:25:26;14.00;78.70
80540;DHT22;69869;48.036;15.780;2024-02-21T08:27:57;13.90;78.60
80540;DHT22;69869;48.036;15.780;2024-02-21T08:30:23;13.90;78.60
80540;DHT22;69869;48.036;15.780;2024-02-21T08:32:48;14.00;78.70
80540;DHT22;69869;48.036;15.780;2024-02-21T08:35:14;14.00;78.70
80540;DHT22;69869;48.036;15.780;2024-02-21T08:37:40;14.00;78.60
80540;DHT22;69869;48.036;15.780;2024-02-21T08:40:06;13.90;78.50
80540;DHT22;69869;48.036;15.780;2024-02-21T08:42:35;13.90;78.50
80540;DHT22;69869;48.036;15.780;2024-02-21T08:45:03;14.00;78.60
80540;DHT22;69869;48.036;15.780;2024-02-21T08:47:28;13.90;78.50
80540;DHT22;69869;48.036;15.780;2024-02-21T08:49:54;14.00;78.70
80540;DHT22;69869;48.036;15.780;2024-02-21T08:52:20;14.00;78.60
80540;DHT22;69869;48.036;15.780;2024-02-21T08:54:45;14.00;78.70
80540;DHT22;69869;48.036;15.780;2024-02-21T08:57:11;14.00;78.60
80540;DHT22;69869;48.036;15.780;2024-02-21T08:59:39;13.90;78.40
80540;DHT22;69869;48.036;15.780;2024-02-21T09:02:05;14.00;78.70
80540;DHT22;69869;48.036;15.780;2024-02-21T09:04:32;14.00;78.60
80540;DHT22;69869;48.036;15.780;2024-02-21T09:06:58;13.90;78.50
80540;DHT22;69869;48.036;15.780;2024-02-21T09:09:24;13.90;78.40
80540;DHT22;69869;48.036;15.780;2024-02-21T09:11:50;14.00;78.40
80540;DHT22;69869;48.036;15.780;2024-02-21T09:14:15;14.00;78.60
80540;DHT22;69869;48.036;15.780;2024-02-21T09:16:41;14.00;79.20
80540;DHT22;69869;48.036;15.780;2024-02-21T09:19:06;14.00;78.30
80540;DHT22;69869;48.036;15.780;2024-02-21T09:21:36;13.90;78.30
80540;DHT22;69869;48.036;15.780;2024-02-21T09:24:02;13.90;78.40
80540;DHT22;69869;48.036;15.780;2024-02-21T09:26:28;14.00;78.70
80540;DHT22;69869;48.036;15.780;2024-02-21T09:28:53;13.90;78.50
80540;DHT22;69869;48.036;15.780;2024-02-21T09:31:19;14.00;78.60
80540;DHT22;69869;48.036;15.780;2024-02-21T09:33:45;14.00;78.60
80540;DHT22;69869;48.036;15.780;2024-02-21T09:36:11;13.90;78.40
80540;DHT22;69869;48.036;15.780;2024-02-21T09:38:36;14.00;78.60
80540;DHT22;69869;48.036;15.780;2024-02-21T09:41:15;14.00;78.50
80540;DHT22;69869;48.036;15.780;2024-02-21T09:43:45;13.90;78.40
80540;DHT22;69869;48.036;15.780;2024-02-21T09:46:16;14.00;78.60
80540;DHT22;69869;48.036;15.780;2024-02-21T09:48:58;14.00;78.50
80540;DHT22;69869;48.036;15.780;2024-02-21T09:51:30;14.00;78.40
80540;DHT22;69869;48.036;15.780;2024-02-21T09:53:58;14.00;78.60
80540;DHT22;69869;48.036;15.780;2024-02-21T09:56:25;14.00;78.50
80540;DHT22;69869;48.036;15.780;2024-02-21T09:58:50;14.00;78.70
80540;DHT22;69869;48.036;15.780;2024-02-21T10:01:16;13.90;78.50
80540;DHT22;69869;48.036;15.780;2024-02-21T10:03:42;14.00;78.50
80540;DHT22;69869;48.036;15.780;2024-02-21T10:06:09;14.00;78.60
80540;DHT22;69869;48.036;15.780;2024-02-21T10:08:38;14.00;78.60
80540;DHT22;69869;48.036;15.780;2024-02-21T10:11:03;14.00;78.50
80540;DHT22;69869;48.036;15.780;2024-02-21T10:13:30;14.00;78.50
80540;DHT22;69869;48.036;15.780;2024-02-21T10:16:06;13.90;78.40
80540;DHT22;69869;48.036;15.780;2024-02-21T10:18:33;14.00;78.60
80540;DHT22;69869;48.036;15.780;2024-02-21T10:21:04;14.00;78.50
80540;DHT22;69869;48.036;15.780;2024-02-21T10:23:41;13.90;78.40
80540;DHT22;69869;48.036;15.780;2024-02-21T10:26:07;13.90;78.50
80540;DHT22;69869;48.036;15.780;2024-02-21T10:28:33;13.90;78.40
80540;DHT22;69869;48.036;15.780;2024-02-21T10:30:59;14.00;78.60
80540;DHT22;69869;48.036;15.780;2024-02-21T10:33:24;14.00;78.60
80540;DHT22;69869;48.036;15.780;2024-02-21T10:35:53;14.00;78.50
80540;DHT22;69869;48.036;15.780;2024-02-21T10:38:18;14.00;78.50
80540;DHT22;69869;48.036;15.780;2024-02-21T10:40:46;13.90;78.30
80540;DHT22;69869;48.036;15.780;2024-02-21T10:43:13;14.00;78.50
80540;DHT22;69869;48.036;15.780;2024-02-21T10:45:41;14.00;78.50
80540;DHT22;69869;48.036;15.780;2024-02-21T10:48:16;14.00;78.50
80540;DHT22;69869;48.036;15.780;2024-02-21T10:56:31;14.00;78.50
80540;DHT22;69869;48.036;15.780;2024-02-21T10:59:07;14.00;78.40
80540;DHT22;69869;48.036;15.780;2024-02-21T11:01:34;13.90;78.40
80540;DHT22;69869;48.036;15.780;2024-02-21T11:04:10;14.00;78.50
80540;DHT22;69869;48.036;15.780;2024-02-21T11:06:38;14.00;78.50
80540;DHT22;69869;48.036;15.780;2024-02-21T11:11:34;13.90;78.30
80540;DHT22;69869;48.036;15.780;2024-02-21T11:14:10;13.90;78.40
80540;DHT22;69869;48.036;15.780;2024-02-21T11:16:38;13.90;78.40
80540;DHT22;69869;48.036;15.780;2024-02-21T11:19:27;14.00;78.50
80540;DHT22;69869;48.036;15.780;2024-02-21T11:21:55;14.00;78.40
80540;DHT22;69869;48.036;15.780;2024-02-21T11:24:27;14.00;78.50
80540;DHT22;69869;48.036;15.780;2024-02-21T11:26:54;14.00;78.60
80540;DHT22;69869;48.036;15.780;2024-02-21T11:29:24;13.90;78.50
80540;DHT22;69869;48.036;15.780;2024-02-21T11:31:51;13.90;78.40
80540;DHT22;69869;48.036;15.780;2024-02-21T11:34:18;13.90;78.50
80540;DHT22;69869;48.036;15.780;2024-02-21T11:36:51;14.00;78.70
80540;DHT22;69869;48.036;15.780;2024-02-21T11:39:25;14.00;78.80
80540;DHT22;69869;48.036;15.780;2024-02-21T11:42:20;14.00;78.70
80540;DHT22;69869;48.036;15.780;2024-02-21T11:44:46;14.00;78.70
80540;DHT22;69869;48.036;15.780;2024-02-21T11:47:13;13.90;78.60
80540;DHT22;69869;48.036;15.780;2024-02-21T11:49:45;14.00;78.60
80540;DHT22;69869;48.036;15.780;2024-02-21T11:52:11;14.00;78.60
80540;DHT22;69869;48.036;15.780;2024-02-21T11:54:37;14.00;78.70
80540;DHT22;69869;48.036;15.780;2024-02-21T11:57:03;14.00;78.60
80540;DHT22;69869;48.036;15.780;2024-02-21T11:59:32;14.00;78.60
80540;DHT22;69869;48.036;15.780;2024-02-21T12:01:59;14.00;78.70
80540;DHT22;69869;48.036;15.780;2024-02-21T12:04:25;14.00;78.70
80540;DHT22;69869;48.036;15.780;2024-02-21T12:06:53;14.00;78.70
80540;DHT22;69869;48.036;15.780;2024-02-21T12:09:19;14.00;78.70
80540;DHT22;69869;48.036;15.780;2024-02-21T12:11:45;13.90;78.60
80540;DHT22;69869;48.036;15.780;2024-02-21T12:14:16;14.00;78.70
80540;DHT22;69869;48.036;15.780;2024-02-21T12:16:42;14.00;78.70
80540;DHT22;69869;48.036;15.780;2024-02-21T12:19:13;14.00;78.50
80540;DHT22;69869;48.036;15.780;2024-02-21T12:21:39;14.00;78.60
80540;DHT22;69869;48.036;15.780;2024-02-21T12:24:21;14.00;78.70
80540;DHT22;69869;48.036;15.780;2024-02-21T12:26:47;14.00;78.70
80540;DHT22;69869;48.036;15.780;2024-02-21T12:29:12;14.00;78.70
80540;DHT22;69869;48.036;15.780;2024-02-21T12:31:39;14.00;78.70
80540;DHT22;69869;48.036;15.780;2024-02-21T12:34:05;13.90;78.60
80540;DHT22;69869;48.036;15.780;2024-02-21T12:36:35;14.00;78.70
80540;DHT22;69869;48.036;15.780;2024-02-21T12:39:01;14.00;78.80
80540;DHT22;69869;48.036;15.780;2024-02-21T12:41:28;14.00;78.60
80540;DHT22;69869;48.036;15.780;2024-02-21T12:43:55;14.00;78.60
80540;DHT22;69869;48.036;15.780;2024-02-21T12:46:22;14.00;78.70
80540;DHT22;69869;48.036;15.780;2024-02-21T12:48:47;14.00;78.50
80540;DHT22;69869;48.036;15.780;2024-02-21T12:51:13;14.00;78.60
80540;DHT22;69869;48.036;15.780;2024-02-21T12:53:39;14.00;79.30
80540;DHT22;69869;48.036;15.780;2024-02-21T12:56:05;14.00;78.70
80540;DHT22;69869;48.036;15.780;2024-02-21T12:58:33;14.00;78.70
80540;DHT22;69869;48.036;15.780;2024-02-21T13:00:58;13.90;78.60
80540;DHT22;69869;48.036;15.780;2024-02-21T13:03:24;14.00;78.70
80540;DHT22;69869;48.036;15.780;2024-02-21T13:05:51;14.00;78.70
80540;DHT22;69869;48.036;15.780;2024-02-21T13:08:16;14.00;78.70
80540;DHT22;69869;48.036;15.780;2024-02-21T13:10:43;14.00;78.80
80540;DHT22;69869;48.036;15.780;2024-02-21T13:13:09;14.00;78.90
80540;DHT22;69869;48.036;15.780;2024-02-21T13:15:34;14.00;78.80
80540;DHT22;69869;48.036;15.780;2024-02-21T13:18:00;14.00;78.80
80540;DHT22;69869;48.036;15.780;2024-02-21T13:20:26;14.00;78.80
80540;DHT22;69869;48.036;15.780;2024-02-21T13:22:52;14.00;78.80
80540;DHT22;69869;48.036;15.780;2024-02-21T13:25:18;14.00;78.90
80540;DHT22;69869;48.036;15.780;2024-02-21T13:27:46;14.00;78.90
80540;DHT22;69869;48.036;15.780;2024-02-21T13:30:12;14.00;78.70
80540;DHT22;69869;48.036;15.780;2024-02-21T13:32:44;14.00;78.90
80540;DHT22;69869;48.036;15.780;2024-02-21T13:35:12;14.00;78.90
80540;DHT22;69869;48.036;15.780;2024-02-21T13:37:41;14.00;78.90
80540;DHT22;69869;48.036;15.780;2024-02-21T13:40:07;14.00;78.90
80540;DHT22;69869;48.036;15.780;2024-02-21T13:42:39;14.00;78.80
80540;DHT22;69869;48.036;15.780;2024-02-21T13:45:06;14.00;78.80
80540;DHT22;69869;48.036;15.780;2024-02-21T13:47:33;14.00;78.90
80540;DHT22;69869;48.036;15.780;2024-02-21T13:49:59;14.00;78.80
80540;DHT22;69869;48.036;15.780;2024-02-21T13:52:24;14.00;78.90
80540;DHT22;69869;48.036;15.780;2024-02-21T13:54:52;14.00;78.90
80540;DHT22;69869;48.036;15.780;2024-02-21T13:57:18;14.00;78.90
80540;DHT22;69869;48.036;15.780;2024-02-21T13:59:43;14.00;78.90
80540;DHT22;69869;48.036;15.780;2024-02-21T14:02:09;14.00;78.80
80540;DHT22;69869;48.036;15.780;2024-02-21T14:04:35;14.00;78.60
80540;DHT22;69869;48.036;15.780;2024-02-21T14:07:01;14.00;78.70
80540;DHT22;69869;48.036;15.780;2024-02-21T14:09:27;14.00;78.70
80540;DHT22;69869;48.036;15.780;2024-02-21T14:11:55;14.00;78.70
80540;DHT22;69869;48.036;15.780;2024-02-21T14:14:20;14.00;78.70
80540;DHT22;69869;48.036;15.780;2024-02-21T14:16:46;14.00;78.70
80540;DHT22;69869;48.036;15.780;2024-02-21T14:19:15;14.00;78.70
80540;DHT22;69869;48.036;15.780;2024-02-21T14:21:41;14.00;78.80
80540;DHT22;69869;48.036;15.780;2024-02-21T14:24:06;14.00;78.70
80540;DHT22;69869;48.036;15.780;2024-02-21T14:26:33;14.00;78.70
80540;DHT22;69869;48.036;15.780;2024-02-21T14:28:58;14.00;79.40
80540;DHT22;69869;48.036;15.780;2024-02-21T14:31:25;14.00;78.80
80540;DHT22;69869;48.036;15.780;2024-02-21T14:33:51;14.00;78.80
80540;DHT22;69869;48.036;15.780;2024-02-21T14:36:17;14.00;78.90
80540;DHT22;69869;48.036;15.780;2024-02-21T14:38:42;14.00;78.70
80540;DHT22;69869;48.036;15.780;2024-02-21T14:41:09;14.00;78.80
80540;DHT22;69869;48.036;15.780;2024-02-21T14:43:37;14.00;78.90
80540;DHT22;69869;48.036;15.780;2024-02-21T14:46:03;14.00;79.00
80540;DHT22;69869;48.036;15.780;2024-02-21T14:48:31;14.00;78.90
80540;DHT22;69869;48.036;15.780;2024-02-21T14:50:57;14.00;78.90
80540;DHT22;69869;48.036;15.780;2024-02-21T14:53:23;14.00;78.90
80540;DHT22;69869;48.036;15.780;2024-02-21T14:55:49;14.00;78.90
80540;DHT22;69869;48.036;15.780;2024-02-21T14:58:16;14.00;78.90
80540;DHT22;69869;48.036;15.780;2024-02-21T15:00:43;14.00;78.90
80540;DHT22;69869;48.036;15.780;2024-02-21T15:03:09;14.00;78.90
80540;DHT22;69869;48.036;15.780;2024-02-21T15:05:36;14.00;79.00
80540;DHT22;69869;48.036;15.780;2024-02-21T15:08:03;14.00;78.90
80540;DHT22;69869;48.036;15.780;2024-02-21T15:10:29;14.00;79.00
80540;DHT22;69869;48.036;15.780;2024-02-21T15:12:55;14.00;78.90
80540;DHT22;69869;48.036;15.780;2024-02-21T15:15:21;14.00;78.80
80540;DHT22;69869;48.036;15.780;2024-02-21T15:17:47;14.00;79.00
80540;DHT22;69869;48.036;15.780;2024-02-21T15:20:12;14.00;78.90
80540;DHT22;69869;48.036;15.780;2024-02-21T15:22:38;14.00;78.90
80540;DHT22;69869;48.036;15.780;2024-02-21T15:25:04;14.00;78.90
80540;DHT22;69869;48.036;15.780;2024-02-21T15:27:30;14.00;78.90
80540;DHT22;69869;48.036;15.780;2024-02-21T15:29:56;14.00;78.90